createdAt,value
2022-10-22T00:01:01.628Z,20.89
2022-10-22T00:03:30.815Z,20.95
2022-10-22T00:05:57.790Z,20.98
2022-10-22T00:08:24.426Z,20.88
2022-10-22T00:10:53.746Z,20.79
2022-10-22T00:13:20.950Z,21.17
2022-10-22T00:15:50.664Z,21.17
2022-10-22T00:18:19.094Z,21.17
2022-10-22T00:20:45.818Z,21.37
2022-10-22T00:23:12.421Z,21.44
2022-10-22T00:25:41.734Z,21.26
2022-10-22T00:28:10.346Z,21.25
2022-10-22T00:30:38.942Z,21.47
2022-10-22T00:33:05.664Z,21.65
2022-10-22T00:35:33.035Z,21.46
2022-10-22T00:38:00.558Z,21.65
2022-10-22T00:40:37.774Z,21.49
2022-10-22T00:43:07.892Z,21.71
2022-10-22T00:45:39.229Z,21.67
2022-10-22T00:48:15.005Z,21.38
2022-10-22T00:50:44.415Z,21.83
2022-10-22T00:53:22.295Z,21.42
2022-10-22T00:55:54.277Z,21.82
2022-10-22T00:58:31.299Z,21.82
2022-10-22T01:00:58.635Z,21.43
2022-10-22T01:03:26.146Z,21.74
2022-10-22T01:06:00.903Z,21.63
2022-10-22T01:08:46.827Z,21.66
2022-10-22T01:11:51.201Z,21.54
2022-10-22T01:14:17.943Z,21.18
2022-10-22T01:17:09.899Z,21.42
2022-10-22T01:20:10.664Z,21.32
2022-10-22T01:23:05.460Z,21.27
2022-10-22T01:25:46.430Z,21.29
2022-10-22T01:28:27.929Z,21.54
2022-10-22T01:30:58.224Z,21.57
2022-10-22T01:33:28.364Z,21.02
2022-10-22T01:35:56.279Z,21.40
2022-10-22T01:38:25.146Z,21.27
2022-10-22T01:41:01.612Z,21.46
2022-10-22T01:43:32.834Z,21.39
2022-10-22T01:46:04.789Z,21.34
2022-10-22T01:48:54.802Z,21.09
2022-10-22T01:51:27.518Z,21.45
2022-10-22T01:53:57.865Z,21.30
2022-10-22T01:56:31.529Z,21.37
2022-10-22T01:59:08.361Z,21.29
2022-10-22T02:02:05.086Z,20.86
2022-10-22T02:04:48.710Z,19.87
2022-10-22T02:07:19.762Z,20.97
2022-10-22T02:09:47.886Z,20.89
2022-10-22T02:12:17.069Z,20.75
2022-10-22T02:14:49.457Z,20.67
2022-10-22T02:17:20.221Z,20.63
2022-10-22T02:20:03.693Z,20.70
2022-10-22T02:22:30.910Z,20.96
2022-10-22T02:24:57.779Z,20.66
2022-10-22T02:27:39.093Z,20.84
2022-10-22T02:30:12.375Z,20.71
2022-10-22T02:33:02.120Z,20.37
2022-10-22T02:35:36.216Z,20.30
2022-10-22T02:38:04.474Z,20.50
2022-10-22T02:40:31.905Z,20.12
2022-10-22T02:42:58.822Z,20.62
2022-10-22T02:45:27.764Z,20.71
2022-10-22T02:47:54.431Z,21.20
2022-10-22T02:50:21.376Z,21.17
2022-10-22T02:52:48.307Z,21.35
2022-10-22T02:55:15.133Z,21.42
2022-10-22T02:57:42.443Z,21.60
2022-10-22T03:00:11.500Z,21.55
2022-10-22T03:02:38.848Z,21.64
2022-10-22T03:05:10.253Z,21.79
2022-10-22T03:07:38.247Z,21.61
2022-10-22T03:10:05.933Z,21.41
2022-10-22T03:12:33.792Z,21.91
2022-10-22T03:15:00.598Z,21.65
2022-10-22T03:17:27.708Z,21.90
2022-10-22T03:19:54.373Z,21.87
2022-10-22T03:22:27.259Z,21.90
2022-10-22T03:24:58.495Z,21.95
2022-10-22T03:27:28.520Z,21.60
2022-10-22T03:29:57.405Z,21.66
2022-10-22T03:32:24.130Z,21.76
2022-10-22T03:34:57.488Z,21.57
2022-10-22T03:37:28.960Z,21.68
2022-10-22T03:39:55.998Z,21.63
2022-10-22T03:42:25.141Z,21.82
2022-10-22T03:44:53.011Z,21.41
2022-10-22T03:47:19.664Z,21.77
2022-10-22T03:49:46.340Z,21.71
2022-10-22T03:52:14.818Z,21.65
2022-10-22T03:54:42.696Z,21.98
2022-10-22T03:57:10.318Z,21.59
2022-10-22T03:59:43.079Z,21.77
2022-10-22T04:02:13.599Z,22.29
2022-10-22T04:04:40.714Z,22.04
2022-10-22T04:07:12.104Z,22.07
2022-10-22T04:09:41.859Z,21.55
2022-10-22T04:12:09.939Z,21.89
2022-10-22T04:14:36.784Z,22.05
2022-10-22T04:17:03.718Z,21.93
2022-10-22T04:19:33.603Z,21.63
2022-10-22T04:22:01.074Z,21.80
2022-10-22T04:24:27.770Z,21.84
2022-10-22T04:26:55.225Z,21.63
2022-10-22T04:29:31.494Z,21.86
2022-10-22T04:31:58.157Z,21.87
2022-10-22T04:34:27.843Z,21.82
2022-10-22T04:36:54.455Z,21.40
2022-10-22T04:39:21.166Z,21.73
2022-10-22T04:41:47.800Z,22.03
2022-10-22T04:44:17.205Z,21.98
2022-10-22T04:46:50.644Z,22.14
2022-10-22T04:49:17.329Z,22.05
2022-10-22T04:51:44.098Z,22.07
2022-10-22T04:54:10.951Z,21.67
2022-10-22T04:56:37.873Z,22.06
2022-10-22T04:59:07.446Z,22.05
2022-10-22T05:01:40.075Z,21.95
2022-10-22T05:04:13.967Z,22.06
2022-10-22T05:06:40.683Z,22.02
2022-10-22T05:09:12.148Z,22.16
2022-10-22T05:11:41.805Z,22.15
2022-10-22T05:14:10.181Z,22.19
2022-10-22T05:16:38.175Z,21.59
2022-10-22T05:19:05.940Z,21.47
2022-10-22T05:21:33.262Z,22.19
2022-10-22T05:24:00.420Z,22.17
2022-10-22T05:26:28.591Z,22.16
2022-10-22T05:28:55.654Z,22.05
2022-10-22T05:31:22.447Z,21.58
2022-10-22T05:33:49.152Z,21.99
2022-10-22T05:36:18.591Z,22.22
2022-10-22T05:38:45.579Z,21.97
2022-10-22T05:41:27.854Z,22.06
2022-10-22T05:43:57.182Z,22.43
2022-10-22T05:46:26.020Z,22.33
2022-10-22T05:49:04.316Z,21.66
2022-10-22T05:51:33.443Z,22.47
2022-10-22T05:54:06.820Z,21.68
2022-10-22T05:56:34.113Z,22.16
2022-10-22T06:01:38.016Z,22.44
2022-10-22T06:04:07.331Z,22.08
2022-10-22T06:06:50.243Z,22.46
2022-10-22T06:09:19.526Z,22.23
2022-10-22T06:11:48.503Z,22.55
2022-10-22T06:14:15.134Z,22.38
2022-10-22T06:16:42.062Z,22.58
2022-10-22T06:19:12.702Z,22.58
2022-10-22T06:21:40.838Z,22.51
2022-10-22T06:24:08.155Z,22.47
2022-10-22T06:26:35.022Z,22.44
2022-10-22T06:29:02.220Z,22.12
2022-10-22T06:31:29.521Z,22.60
2022-10-22T06:34:02.373Z,22.53
2022-10-22T06:36:30.664Z,22.29
2022-10-22T06:38:57.739Z,22.63
2022-10-22T06:41:28.539Z,22.73
2022-10-22T06:44:01.278Z,22.63
2022-10-22T06:46:28.360Z,22.71
2022-10-22T06:48:57.963Z,22.18
2022-10-22T06:51:27.298Z,22.70
2022-10-22T06:53:55.561Z,22.68
2022-10-22T06:56:25.476Z,22.72
2022-10-22T06:58:54.386Z,22.65
2022-10-22T07:01:24.136Z,22.75
2022-10-22T07:03:52.124Z,22.72
2022-10-22T07:06:19.432Z,22.68
2022-10-22T07:08:48.094Z,22.76
2022-10-22T07:11:22.613Z,22.80
2022-10-22T07:13:53.055Z,22.91
2022-10-22T07:16:19.922Z,22.21
2022-10-22T07:18:49.984Z,22.85
2022-10-22T07:21:20.746Z,22.74
2022-10-22T07:23:50.150Z,22.55
2022-10-22T07:26:18.164Z,22.47
2022-10-22T07:28:44.970Z,22.54
2022-10-22T07:31:17.244Z,22.38
2022-10-22T07:33:46.376Z,22.42
2022-10-22T07:36:22.090Z,22.50
2022-10-22T07:38:53.882Z,22.75
2022-10-22T07:41:20.801Z,22.83
2022-10-22T07:43:50.875Z,22.87
2022-10-22T07:46:17.738Z,22.79
2022-10-22T07:48:51.825Z,22.58
2022-10-22T07:51:19.236Z,22.75
2022-10-22T07:53:49.184Z,22.70
2022-10-22T07:56:18.826Z,22.76
2022-10-22T07:58:45.673Z,22.67
2022-10-22T08:01:12.542Z,22.13
2022-10-22T08:03:42.815Z,22.55
2022-10-22T08:06:13.048Z,22.00
2022-10-22T08:08:40.082Z,22.24
2022-10-22T08:11:06.968Z,21.70
2022-10-22T08:13:33.635Z,22.43
2022-10-22T08:16:01.132Z,22.71
2022-10-22T08:18:29.222Z,22.84
2022-10-22T08:20:56.238Z,23.04
2022-10-22T08:23:28.567Z,22.32
2022-10-22T08:25:57.902Z,22.61
2022-10-22T08:28:29.699Z,23.07
2022-10-22T08:30:57.294Z,22.50
2022-10-22T08:33:24.318Z,22.85
2022-10-22T08:35:53.429Z,23.17
2022-10-22T08:38:21.337Z,22.94
2022-10-22T08:41:03.685Z,22.79
2022-10-22T08:44:03.162Z,23.14
2022-10-22T08:47:40.962Z,22.97
2022-10-22T08:50:12.406Z,23.12
2022-10-22T08:52:42.390Z,23.45
2022-10-22T08:55:14.681Z,23.40
2022-10-22T08:58:10.746Z,23.08
2022-10-22T09:00:56.438Z,22.93
2022-10-22T09:03:43.159Z,23.42
2022-10-22T09:06:36.465Z,23.55
2022-10-22T09:09:15.888Z,23.57
2022-10-22T09:11:56.775Z,23.46
2022-10-22T09:14:26.191Z,23.25
2022-10-22T09:17:20.905Z,23.60
2022-10-22T09:20:23.847Z,23.58
2022-10-22T09:23:01.165Z,23.49
2022-10-22T09:25:31.169Z,23.66
2022-10-22T09:28:00.675Z,23.04
2022-10-22T09:30:30.188Z,23.30
2022-10-22T09:33:06.174Z,23.43
2022-10-22T09:35:50.974Z,23.71
2022-10-22T09:38:20.788Z,23.93
2022-10-22T09:40:58.722Z,23.99
2022-10-22T09:43:28.068Z,23.85
2022-10-22T09:46:00.807Z,24.07
2022-10-22T09:48:34.744Z,24.04
2022-10-22T09:51:21.520Z,23.94
2022-10-22T09:53:57.235Z,24.06
2022-10-22T09:56:37.676Z,23.97
2022-10-22T09:59:15.429Z,24.02
2022-10-22T10:01:45.869Z,24.04
2022-10-22T10:04:14.984Z,23.67
2022-10-22T10:06:44.733Z,24.22
2022-10-22T10:09:22.834Z,24.13
2022-10-22T10:12:15.724Z,24.16
2022-10-22T10:14:54.521Z,24.00
2022-10-22T10:18:02.766Z,24.36
2022-10-22T10:21:04.861Z,24.41
2022-10-22T10:23:42.072Z,24.24
2022-10-22T10:26:23.384Z,24.40
2022-10-22T10:29:10.881Z,24.33
2022-10-22T10:31:54.470Z,24.36
2022-10-22T10:34:46.623Z,24.67
2022-10-22T10:37:16.448Z,24.64
2022-10-22T10:39:45.923Z,24.57
2022-10-22T10:42:36.164Z,24.67
2022-10-22T10:45:36.508Z,24.62
2022-10-22T10:48:31.406Z,24.77
2022-10-22T10:51:10.198Z,24.75
2022-10-22T10:53:57.907Z,24.58
2022-10-22T10:56:34.394Z,24.68
2022-10-22T10:59:29.432Z,24.18
2022-10-22T11:02:30.834Z,23.97
2022-10-22T11:05:14.472Z,24.53
2022-10-22T11:07:52.130Z,24.63
2022-10-22T11:10:37.183Z,24.65
2022-10-22T11:13:19.815Z,24.59
2022-10-22T11:16:00.880Z,24.49
2022-10-22T11:18:37.869Z,24.72
2022-10-22T11:21:36.185Z,24.86
2022-10-22T11:24:21.893Z,24.86
2022-10-22T11:26:58.721Z,25.06
2022-10-22T11:29:34.509Z,25.07
2022-10-22T11:32:03.923Z,24.53
2022-10-22T11:34:48.834Z,25.06
2022-10-22T11:37:16.932Z,24.95
2022-10-22T11:39:56.951Z,24.89
2022-10-22T11:42:34.400Z,25.12
2022-10-22T11:45:02.626Z,25.16
2022-10-22T11:47:51.659Z,24.80
2022-10-22T11:50:26.175Z,25.26
2022-10-22T11:53:27.973Z,25.17
2022-10-22T11:55:57.704Z,25.22
2022-10-22T11:58:39.535Z,25.02
2022-10-22T12:01:12.875Z,24.53
2022-10-22T12:03:59.596Z,25.23
2022-10-22T12:06:55.136Z,25.26
2022-10-22T12:09:30.417Z,25.22
2022-10-22T12:12:04.783Z,25.35
2022-10-22T12:14:51.480Z,25.29
2022-10-22T12:17:20.972Z,25.02
2022-10-22T12:20:14.958Z,25.29
2022-10-22T12:22:43.453Z,25.26
2022-10-22T12:25:20.152Z,25.30
2022-10-22T12:27:53.381Z,25.25
2022-10-22T12:30:23.901Z,25.25
2022-10-22T12:33:01.796Z,25.20
2022-10-22T12:35:33.562Z,24.76
2022-10-22T12:38:15.600Z,25.10
2022-10-22T12:40:45.971Z,25.24
2022-10-22T12:43:18.512Z,25.27
2022-10-22T12:45:47.442Z,25.15
2022-10-22T12:48:23.794Z,25.31
2022-10-22T12:51:05.264Z,25.25
2022-10-22T12:53:39.941Z,25.45
2022-10-22T12:56:23.181Z,25.59
2022-10-22T12:59:00.676Z,24.52
2022-10-22T13:01:38.157Z,25.45
2022-10-22T13:04:36.983Z,25.33
2022-10-22T13:07:18.437Z,24.80
2022-10-22T13:09:59.382Z,25.24
2022-10-22T13:12:27.901Z,25.22
2022-10-22T13:15:19.160Z,25.28
2022-10-22T13:17:54.782Z,25.35
2022-10-22T13:20:23.562Z,25.34
2022-10-22T13:23:04.174Z,25.33
2022-10-22T13:25:33.503Z,24.79
2022-10-22T13:28:20.050Z,25.11
2022-10-22T13:31:13.177Z,25.04
2022-10-22T13:33:43.804Z,24.71
2022-10-22T13:36:14.956Z,25.25
2022-10-22T13:38:43.089Z,25.22
2022-10-22T13:41:36.691Z,25.22
2022-10-22T13:44:03.379Z,25.05
2022-10-22T13:46:33.155Z,25.14
2022-10-22T13:49:00.727Z,24.99
2022-10-22T13:51:37.872Z,25.18
2022-10-22T13:54:14.018Z,24.78
2022-10-22T13:56:41.043Z,24.90
2022-10-22T13:59:42.877Z,24.68
2022-10-22T14:05:48.522Z,24.92
2022-10-22T14:08:32.225Z,23.57
2022-10-22T14:22:24.139Z,24.93
2022-10-22T14:24:52.028Z,24.87
2022-10-22T14:27:18.696Z,24.58
2022-10-22T14:29:46.591Z,24.63
2022-10-22T14:32:21.650Z,24.59
2022-10-22T14:34:48.859Z,24.03
2022-10-22T14:37:21.463Z,24.58
2022-10-22T14:39:52.500Z,24.33
2022-10-22T14:42:25.716Z,24.40
2022-10-22T14:44:52.484Z,24.37
2022-10-22T14:47:22.093Z,24.51
2022-10-22T14:49:51.692Z,24.45
2022-10-22T14:52:20.308Z,24.30
2022-10-22T14:54:50.382Z,24.10
2022-10-22T14:57:17.136Z,24.36
2022-10-22T14:59:47.059Z,24.32
2022-10-22T15:02:14.019Z,24.27
2022-10-22T15:04:41.370Z,24.26
2022-10-22T15:07:08.167Z,24.15
2022-10-22T15:09:34.957Z,24.18
2022-10-22T15:12:01.666Z,23.87
2022-10-22T15:14:28.320Z,24.00
2022-10-22T15:16:54.968Z,24.11
2022-10-22T15:19:21.726Z,23.67
2022-10-22T15:21:53.683Z,23.92
2022-10-22T15:24:20.390Z,23.86
2022-10-22T15:26:47.300Z,23.90
2022-10-22T15:29:16.627Z,23.91
2022-10-22T15:31:44.386Z,23.89
2022-10-22T15:34:11.460Z,23.59
2022-10-22T15:36:38.290Z,23.79
2022-10-22T15:39:12.713Z,23.16
2022-10-22T15:41:39.943Z,23.58
2022-10-22T15:44:08.672Z,22.75
2022-10-22T15:46:36.063Z,23.66
2022-10-22T15:49:02.953Z,23.63
2022-10-22T15:51:29.698Z,23.53
2022-10-22T15:53:59.081Z,23.43
2022-10-22T15:56:28.860Z,23.55
2022-10-22T15:59:04.149Z,22.93
2022-10-22T16:01:34.181Z,23.04
2022-10-22T16:04:04.690Z,23.48
2022-10-22T16:06:56.565Z,23.43
2022-10-22T16:09:28.926Z,23.34
2022-10-22T16:11:56.105Z,23.42
2022-10-22T16:14:24.282Z,23.19
2022-10-22T16:16:59.526Z,23.16
2022-10-22T16:19:26.323Z,23.28
2022-10-22T16:22:06.635Z,23.22
2022-10-22T16:24:33.493Z,23.31
2022-10-22T16:27:00.303Z,23.10
2022-10-22T16:29:27.374Z,23.11
2022-10-22T16:32:01.135Z,23.01
2022-10-22T16:34:28.448Z,23.15
2022-10-22T16:36:57.255Z,23.09
2022-10-22T16:39:23.990Z,23.05
2022-10-22T16:41:50.580Z,22.91
2022-10-22T16:44:17.233Z,23.10
2022-10-22T16:46:44.210Z,23.07
2022-10-22T16:49:11.136Z,22.95
2022-10-22T16:51:38.172Z,22.98
2022-10-22T16:54:08.175Z,22.92
2022-10-22T16:56:38.158Z,22.97
2022-10-22T16:59:04.849Z,22.88
2022-10-22T17:01:33.222Z,22.45
2022-10-22T17:04:01.925Z,22.88
2022-10-22T17:06:28.714Z,22.83
2022-10-22T17:08:57.214Z,22.67
2022-10-22T17:11:25.232Z,22.38
2022-10-22T17:13:54.222Z,21.61
2022-10-22T17:16:27.803Z,22.75
2022-10-22T17:18:55.818Z,22.38
2022-10-22T17:21:23.785Z,22.27
2022-10-22T17:23:56.815Z,22.53
2022-10-22T17:26:26.912Z,22.57
2022-10-22T17:28:56.834Z,21.76
2022-10-22T17:31:38.747Z,22.48
2022-10-22T17:34:08.288Z,22.59
2022-10-22T17:36:37.566Z,22.51
2022-10-22T17:39:07.300Z,22.29
2022-10-22T17:41:36.630Z,21.83
2022-10-22T17:44:10.952Z,22.45
2022-10-22T17:46:46.826Z,22.46
2022-10-22T17:49:17.614Z,22.37
2022-10-22T17:51:44.622Z,22.05
2022-10-22T17:54:12.494Z,22.27
2022-10-22T17:56:40.268Z,21.97
2022-10-22T17:59:08.323Z,22.24
2022-10-22T18:01:39.535Z,22.00
2022-10-22T18:04:08.536Z,22.11
2022-10-22T18:06:36.185Z,21.46
2022-10-22T18:09:14.440Z,22.13
2022-10-22T18:11:44.392Z,22.12
2022-10-22T18:14:14.071Z,22.15
2022-10-22T18:16:40.945Z,22.02
2022-10-22T18:19:09.803Z,22.17
2022-10-22T18:21:37.077Z,22.14
2022-10-22T18:24:07.020Z,21.96
2022-10-22T18:26:35.040Z,21.45
2022-10-22T18:29:01.910Z,22.00
2022-10-22T18:31:30.321Z,21.88
2022-10-22T18:33:57.691Z,22.03
2022-10-22T18:36:26.476Z,21.95
2022-10-22T18:39:04.229Z,21.70
2022-10-22T18:41:33.570Z,21.61
2022-10-22T18:44:15.191Z,21.52
2022-10-22T18:46:44.699Z,21.87
2022-10-22T18:49:18.577Z,20.87
2022-10-22T18:51:49.118Z,21.48
2022-10-22T18:54:23.269Z,20.62
2022-10-22T18:56:50.933Z,21.81
2022-10-22T18:59:23.840Z,21.54
2022-10-22T19:01:54.983Z,21.75
2022-10-22T19:04:22.087Z,21.72
2022-10-22T19:06:53.707Z,21.01
2022-10-22T19:09:22.830Z,21.50
2022-10-22T19:11:49.696Z,20.96
2022-10-22T19:14:30.260Z,21.38
2022-10-22T19:16:57.107Z,21.59
2022-10-22T19:19:24.668Z,21.80
2022-10-22T19:21:51.723Z,21.61
2022-10-22T19:24:24.688Z,21.37
2022-10-22T19:26:51.769Z,20.75
2022-10-22T19:29:20.907Z,21.47
2022-10-22T19:31:48.196Z,21.19
2022-10-22T19:34:14.814Z,21.23
2022-10-22T19:36:41.746Z,21.39
2022-10-22T19:39:15.754Z,21.31
2022-10-22T19:41:44.839Z,21.33
2022-10-22T19:44:12.996Z,21.31
2022-10-22T19:46:40.222Z,21.35
2022-10-22T19:49:10.674Z,21.31
2022-10-22T19:51:41.061Z,21.17
2022-10-22T19:54:12.713Z,21.23
2022-10-22T19:56:45.336Z,21.03
2022-10-22T19:59:12.322Z,20.66
2022-10-22T20:01:39.129Z,20.90
2022-10-22T20:04:06.329Z,20.88
2022-10-22T20:06:33.096Z,20.96
2022-10-22T20:09:02.915Z,20.96
2022-10-22T20:11:30.717Z,20.94
2022-10-22T20:13:59.012Z,20.99
2022-10-22T20:16:30.004Z,20.70
2022-10-22T20:19:01.828Z,20.95
2022-10-22T20:21:29.117Z,20.89
2022-10-22T20:23:57.705Z,20.69
2022-10-22T20:26:28.122Z,20.63
2022-10-22T20:28:56.417Z,20.79
2022-10-22T20:31:25.261Z,20.58
2022-10-22T20:33:52.108Z,20.63
2022-10-22T20:36:23.794Z,20.76
2022-10-22T20:38:51.603Z,20.64
2022-10-22T20:41:24.889Z,20.68
2022-10-22T20:43:52.432Z,20.70
2022-10-22T20:46:25.760Z,20.69
2022-10-22T20:48:56.287Z,20.68
2022-10-22T20:51:23.061Z,20.64
2022-10-22T20:53:52.880Z,20.45
2022-10-22T20:56:23.355Z,20.68
2022-10-22T20:58:54.069Z,20.28
2022-10-22T21:01:24.345Z,20.24
2022-10-22T21:03:54.399Z,20.17
2022-10-22T21:06:23.328Z,19.99
2022-10-22T21:08:52.065Z,20.34
2022-10-22T21:11:23.456Z,20.16
2022-10-22T21:13:51.808Z,20.51
2022-10-22T21:16:19.605Z,20.53
2022-10-22T21:18:47.226Z,20.64
2022-10-22T21:21:19.545Z,20.55
2022-10-22T21:23:46.951Z,20.60
2022-10-22T21:26:13.693Z,20.48
2022-10-22T21:28:43.093Z,20.08
2022-10-22T21:31:11.297Z,20.47
2022-10-22T21:33:42.379Z,20.39
2022-10-22T21:36:09.640Z,20.31
2022-10-22T21:38:38.050Z,20.37
2022-10-22T21:41:06.866Z,20.35
2022-10-22T21:43:34.018Z,19.85
2022-10-22T21:46:08.665Z,20.23
2022-10-22T21:48:39.696Z,20.18
2022-10-22T21:51:13.511Z,20.16
2022-10-22T21:53:40.492Z,20.13
2022-10-22T21:56:08.357Z,20.13
2022-10-22T21:58:36.368Z,19.99
2022-10-22T22:01:06.217Z,20.01
2022-10-22T22:03:34.760Z,20.14
2022-10-22T22:06:05.269Z,20.09
2022-10-22T22:08:34.863Z,19.74
2022-10-22T22:11:30.931Z,20.03
2022-10-22T22:13:59.820Z,20.04
2022-10-22T22:16:35.180Z,20.02
2022-10-22T22:21:32.273Z,19.93
2022-10-22T22:23:59.580Z,19.84
2022-10-22T22:26:31.641Z,19.92
2022-10-22T22:28:59.776Z,19.85
2022-10-22T22:31:32.389Z,19.83
2022-10-22T22:34:14.170Z,19.90
2022-10-22T22:36:42.178Z,19.88
2022-10-22T22:39:15.477Z,19.74
2022-10-22T22:41:43.159Z,19.55
2022-10-22T22:44:10.291Z,19.35
2022-10-22T22:46:37.431Z,19.95
2022-10-22T22:49:04.888Z,19.94
2022-10-22T22:51:32.782Z,20.00
2022-10-22T22:54:03.400Z,19.98
2022-10-22T22:56:32.621Z,20.01
2022-10-22T22:59:02.046Z,19.40
2022-10-22T23:01:48.893Z,20.02
2022-10-22T23:04:25.360Z,20.06
2022-10-22T23:06:53.112Z,20.00
2022-10-22T23:11:47.382Z,20.19
2022-10-22T23:14:18.177Z,20.05
2022-10-22T23:16:47.981Z,20.24
2022-10-22T23:19:17.775Z,20.11
2022-10-22T23:21:53.483Z,20.17
2022-10-22T23:24:25.446Z,20.04
2022-10-22T23:26:54.200Z,20.16
2022-10-22T23:29:28.788Z,20.22
2022-10-22T23:31:55.955Z,19.96
2022-10-22T23:34:27.751Z,19.89
2022-10-22T23:36:57.648Z,19.70
2022-10-22T23:39:27.542Z,19.58
2022-10-22T23:41:55.347Z,20.06
2022-10-22T23:44:23.179Z,20.10
2022-10-22T23:46:50.479Z,19.93
2022-10-22T23:49:18.006Z,20.00
2022-10-22T23:51:44.716Z,20.00
2022-10-22T23:54:17.685Z,19.76
2022-10-22T23:56:44.431Z,19.92
2022-10-22T23:59:11.231Z,19.95
